createdAt,value
2018-07-05T00:02:06.459Z,1.40
2018-07-05T00:04:46.195Z,1.40
2018-07-05T00:07:25.846Z,1.35
2018-07-05T00:10:05.475Z,1.40
2018-07-05T00:12:45.106Z,1.37
2018-07-05T00:15:24.671Z,1.60
2018-07-05T00:18:04.201Z,1.65
2018-07-05T00:20:37.822Z,1.50
2018-07-05T00:23:17.466Z,1.57
2018-07-05T00:25:56.996Z,2.30
2018-07-05T00:28:36.528Z,1.52
2018-07-05T00:31:10.148Z,2.80
2018-07-05T00:33:49.804Z,2.17
2018-07-05T00:36:29.547Z,1.60
2018-07-05T00:39:09.119Z,1.95
2018-07-05T00:41:48.632Z,1.82
2018-07-05T00:44:28.373Z,1.60
2018-07-05T00:47:07.963Z,1.95
2018-07-05T00:49:47.898Z,2.45
2018-07-05T00:52:27.693Z,1.57
2018-07-05T00:55:07.418Z,2.00
2018-07-05T00:57:46.959Z,1.77
2018-07-05T01:00:20.494Z,1.70
2018-07-05T01:02:59.964Z,2.47
2018-07-05T01:05:39.639Z,1.72
2018-07-05T01:08:19.211Z,1.70
2018-07-05T01:10:58.901Z,2.27
2018-07-05T01:13:38.478Z,1.60
2018-07-05T01:16:12.068Z,2.17
2018-07-05T01:18:51.823Z,1.65
2018-07-05T01:21:25.360Z,1.70
2018-07-05T01:24:04.751Z,1.80
2018-07-05T01:26:38.349Z,1.55
2018-07-05T01:29:18.113Z,2.00
2018-07-05T01:31:51.764Z,1.60
2018-07-05T01:34:31.422Z,2.25
2018-07-05T01:37:11.215Z,4.47
2018-07-05T01:39:44.770Z,2.58
2018-07-05T01:42:24.546Z,2.00
2018-07-05T01:44:58.022Z,1.50
2018-07-05T01:47:37.575Z,1.50
2018-07-05T01:50:17.341Z,1.60
2018-07-05T01:52:50.932Z,1.50
2018-07-05T01:55:30.558Z,1.90
2018-07-05T01:58:10.446Z,2.42
2018-07-05T02:00:50.138Z,1.80
2018-07-05T02:03:29.811Z,1.60
2018-07-05T02:06:09.605Z,1.60
2018-07-05T02:08:49.277Z,1.50
2018-07-05T02:11:28.849Z,1.70
2018-07-05T02:14:02.504Z,2.10
2018-07-05T02:16:42.238Z,1.50
2018-07-05T02:19:21.934Z,1.70
2018-07-05T02:22:01.721Z,1.50
2018-07-05T02:24:41.354Z,2.50
2018-07-05T02:27:20.881Z,1.60
2018-07-05T02:29:54.453Z,1.70
2018-07-05T02:32:34.270Z,1.50
2018-07-05T02:35:14.019Z,1.60
2018-07-05T02:37:59.212Z,1.50
2018-07-05T02:40:38.783Z,1.60
2018-07-05T02:43:18.488Z,1.67
2018-07-05T02:45:58.359Z,5.45
2018-07-05T02:48:38.038Z,1.67
2018-07-05T02:51:17.753Z,1.70
2018-07-05T02:53:57.448Z,1.60
2018-07-05T02:56:37.224Z,1.80
2018-07-05T02:59:16.908Z,1.60
2018-07-05T03:01:50.550Z,1.70
2018-07-05T03:04:30.254Z,1.60
2018-07-05T03:07:10.368Z,2.60
2018-07-05T03:09:50.110Z,1.60
2018-07-05T03:12:29.989Z,1.70
2018-07-05T03:15:09.721Z,1.60
2018-07-05T03:17:49.331Z,1.70
2018-07-05T03:20:29.043Z,1.60
2018-07-05T03:23:08.767Z,1.57
2018-07-05T03:25:48.610Z,1.60
2018-07-05T03:28:28.331Z,1.60
2018-07-05T03:31:01.849Z,2.00
2018-07-05T03:33:41.686Z,1.45
2018-07-05T03:36:21.229Z,1.60
2018-07-05T03:39:00.894Z,1.40
2018-07-05T03:41:40.431Z,1.50
2018-07-05T03:44:20.051Z,1.40
2018-07-05T03:46:59.664Z,1.50
2018-07-05T03:49:39.347Z,2.40
2018-07-05T03:52:19.010Z,1.60
2018-07-05T03:54:58.822Z,1.47
2018-07-05T03:57:38.602Z,1.60
2018-07-05T04:00:18.415Z,1.60
2018-07-05T04:02:58.067Z,2.80
2018-07-05T04:05:37.762Z,1.90
2018-07-05T04:08:17.413Z,1.90
2018-07-05T04:10:57.225Z,1.90
2018-07-05T04:13:37.130Z,2.30
2018-07-05T04:16:16.823Z,2.12
2018-07-05T04:18:56.446Z,2.30
2018-07-05T04:21:36.011Z,2.72
2018-07-05T04:24:15.524Z,3.75
2018-07-05T04:26:55.367Z,2.10
2018-07-05T04:29:35.099Z,2.08
2018-07-05T04:32:14.934Z,2.20
2018-07-05T04:34:54.706Z,2.35
2018-07-05T04:37:34.383Z,2.17
2018-07-05T04:40:08.078Z,2.22
2018-07-05T04:42:47.641Z,2.80
2018-07-05T04:45:21.329Z,2.20
2018-07-05T04:47:54.978Z,2.20
2018-07-05T04:50:34.566Z,2.75
2018-07-05T04:53:14.203Z,2.62
2018-07-05T04:55:53.865Z,2.33
2018-07-05T04:58:27.455Z,2.05
2018-07-05T05:01:07.015Z,1.90
2018-07-05T05:03:46.610Z,1.80
2018-07-05T05:06:26.286Z,1.70
2018-07-05T05:09:06.045Z,2.20
2018-07-05T05:11:39.726Z,2.42
2018-07-05T05:14:19.374Z,1.72
2018-07-05T05:16:58.984Z,2.62
2018-07-05T05:19:38.627Z,2.40
2018-07-05T05:22:18.322Z,2.92
2018-07-05T05:24:57.967Z,2.45
2018-07-05T05:27:31.638Z,2.40
2018-07-05T05:30:11.183Z,2.10
2018-07-05T05:32:50.864Z,2.20
2018-07-05T05:35:30.460Z,3.45
2018-07-05T05:38:10.161Z,3.47
2018-07-05T05:40:49.785Z,4.17
2018-07-05T05:43:23.369Z,3.50
2018-07-05T05:46:03.255Z,3.50
2018-07-05T05:48:43.071Z,2.00
2018-07-05T05:51:22.805Z,2.20
2018-07-05T05:54:02.545Z,1.98
2018-07-05T05:56:42.195Z,2.00
2018-07-05T05:59:21.883Z,1.90
2018-07-05T06:02:01.600Z,1.70
2018-07-05T06:04:41.267Z,3.15
2018-07-05T06:07:20.982Z,2.12
2018-07-05T06:10:00.539Z,2.55
2018-07-05T06:12:34.155Z,2.60
2018-07-05T06:15:13.862Z,1.85
2018-07-05T06:17:53.623Z,2.20
2018-07-05T06:20:33.303Z,1.90
2018-07-05T06:23:13.127Z,2.08
2018-07-05T06:25:52.898Z,1.80
2018-07-05T06:28:32.695Z,2.10
2018-07-05T06:31:12.413Z,2.00
2018-07-05T06:33:52.095Z,1.90
2018-07-05T06:36:31.715Z,2.77
2018-07-05T06:39:11.432Z,2.40
2018-07-05T06:41:51.110Z,2.10
2018-07-05T06:44:30.776Z,2.08
2018-07-05T06:47:10.499Z,2.00
2018-07-05T06:49:50.245Z,5.28
2018-07-05T06:52:29.859Z,2.95
2018-07-05T06:55:09.561Z,2.22
2018-07-05T06:57:49.249Z,3.65
2018-07-05T07:00:28.946Z,2.90
2018-07-05T07:03:02.590Z,2.90
2018-07-05T07:05:42.184Z,3.98
2018-07-05T07:08:15.856Z,2.70
2018-07-05T07:10:55.467Z,3.00
2018-07-05T07:13:35.175Z,2.70
2018-07-05T07:16:08.917Z,3.57
2018-07-05T07:18:48.395Z,3.00
2018-07-05T07:21:28.011Z,3.57
2018-07-05T07:24:07.556Z,2.87
2018-07-05T07:26:47.264Z,3.00
2018-07-05T07:29:26.779Z,3.50
2018-07-05T07:32:06.645Z,3.10
2018-07-05T07:34:46.206Z,3.30
2018-07-05T07:37:26.044Z,3.23
2018-07-05T07:40:05.584Z,3.40
2018-07-05T07:42:32.895Z,3.30
2018-07-05T07:45:00.318Z,3.20
2018-07-05T07:47:27.627Z,3.20
2018-07-05T07:49:54.918Z,3.20
2018-07-05T07:52:22.256Z,3.30
2018-07-05T07:54:49.799Z,3.30
2018-07-05T07:57:17.379Z,3.20
2018-07-05T07:59:44.681Z,3.40
2018-07-05T08:02:12.008Z,3.40
2018-07-05T08:04:39.305Z,3.17
2018-07-05T08:07:06.646Z,3.20
2018-07-05T08:09:33.942Z,3.97
2018-07-05T08:12:01.279Z,3.10
2018-07-05T08:14:28.578Z,3.07
2018-07-05T08:16:56.749Z,3.20
2018-07-05T08:19:24.056Z,3.30
2018-07-05T08:21:51.418Z,3.20
2018-07-05T08:24:18.758Z,3.10
2018-07-05T08:26:46.094Z,3.90
2018-07-05T08:29:13.427Z,3.40
2018-07-05T08:31:40.794Z,3.20
2018-07-05T08:34:08.097Z,3.30
2018-07-05T08:36:35.659Z,3.30
2018-07-05T08:39:04.555Z,3.20
2018-07-05T08:41:31.876Z,3.23
2018-07-05T08:43:59.185Z,3.40
2018-07-05T08:46:26.510Z,3.40
2018-07-05T08:48:53.918Z,3.93
2018-07-05T08:51:21.216Z,3.20
2018-07-05T08:53:48.531Z,3.30
2018-07-05T08:56:15.847Z,3.72
2018-07-05T08:58:43.165Z,3.33
2018-07-05T09:01:10.518Z,3.20
2018-07-05T09:03:37.850Z,3.13
2018-07-05T09:06:05.170Z,3.40
2018-07-05T09:08:32.484Z,3.10
2018-07-05T09:10:59.796Z,3.13
2018-07-05T09:13:27.112Z,3.20
2018-07-05T09:15:54.415Z,4.87
2018-07-05T09:18:22.182Z,3.27
2018-07-05T09:20:49.634Z,3.20
2018-07-05T09:23:16.989Z,3.40
2018-07-05T09:25:44.286Z,3.20
2018-07-05T09:28:11.607Z,3.20
2018-07-05T09:30:39.050Z,3.10
2018-07-05T09:33:06.362Z,3.10
2018-07-05T09:35:33.921Z,3.40
2018-07-05T09:38:01.511Z,3.20
2018-07-05T09:40:28.820Z,3.13
2018-07-05T09:42:56.131Z,3.20
2018-07-05T09:45:23.526Z,3.60
2018-07-05T09:47:50.843Z,3.20
2018-07-05T09:50:18.183Z,3.20
2018-07-05T09:52:45.527Z,3.20
2018-07-05T09:55:13.102Z,3.20
2018-07-05T09:57:40.402Z,3.40
2018-07-05T10:00:10.936Z,3.07
2018-07-05T10:02:38.762Z,3.30
2018-07-05T10:05:06.093Z,3.03
2018-07-05T10:07:33.639Z,3.10
2018-07-05T10:10:01.244Z,3.20
2018-07-05T10:12:28.840Z,3.07
2018-07-05T10:14:56.174Z,3.30
2018-07-05T10:17:23.490Z,3.17
2018-07-05T10:19:50.795Z,3.10
2018-07-05T10:22:18.101Z,3.30
2018-07-05T10:24:45.449Z,3.10
2018-07-05T10:27:12.762Z,3.07
2018-07-05T10:29:52.473Z,4.03
2018-07-05T10:32:32.179Z,3.13
2018-07-05T10:34:59.753Z,3.13
2018-07-05T10:37:27.090Z,4.57
2018-07-05T10:40:00.785Z,3.20
2018-07-05T10:42:40.700Z,3.10
2018-07-05T10:45:20.355Z,3.10
2018-07-05T10:48:00.489Z,3.20
2018-07-05T10:50:40.291Z,3.20
2018-07-05T10:53:19.963Z,4.70
2018-07-05T10:55:59.804Z,3.00
2018-07-05T10:58:39.400Z,3.10
2018-07-05T11:01:19.250Z,3.10
2018-07-05T11:03:58.807Z,3.60
2018-07-05T11:06:38.459Z,6.30
2018-07-05T11:09:18.162Z,3.10
2018-07-05T11:11:57.946Z,3.03
2018-07-05T11:14:31.663Z,2.90
2018-07-05T11:17:11.400Z,3.00
2018-07-05T11:19:45.753Z,3.10
2018-07-05T11:22:25.407Z,2.97
2018-07-05T11:24:59.118Z,2.80
2018-07-05T11:27:38.722Z,2.87
2018-07-05T11:30:18.698Z,2.87
2018-07-05T11:32:58.268Z,2.80
2018-07-05T11:35:38.147Z,2.80
2018-07-05T11:38:11.822Z,2.90
2018-07-05T11:40:51.731Z,2.80
2018-07-05T11:43:31.090Z,2.40
2018-07-05T11:46:10.723Z,2.58
2018-07-05T11:48:50.333Z,2.80
2018-07-05T11:51:30.296Z,2.40
2018-07-05T11:54:09.889Z,2.30
2018-07-05T11:56:49.590Z,3.00
2018-07-05T11:59:29.284Z,2.25
2018-07-05T12:02:09.198Z,2.30
2018-07-05T12:04:49.183Z,2.30
2018-07-05T12:07:28.994Z,2.60
2018-07-05T12:10:08.780Z,2.20
2018-07-05T12:12:48.546Z,2.10
2018-07-05T12:15:22.214Z,2.10
2018-07-05T12:18:01.943Z,1.98
2018-07-05T12:20:41.542Z,1.90
2018-07-05T12:23:21.237Z,2.00
2018-07-05T12:26:00.713Z,1.90
2018-07-05T12:28:40.359Z,1.80
2018-07-05T12:31:20.159Z,1.80
2018-07-05T12:33:59.931Z,1.90
2018-07-05T12:36:39.496Z,1.80
2018-07-05T12:39:13.245Z,1.70
2018-07-05T12:41:53.051Z,1.55
2018-07-05T12:44:32.588Z,1.50
2018-07-05T12:47:12.391Z,1.42
2018-07-05T12:49:52.211Z,1.50
2018-07-05T12:52:31.853Z,1.87
2018-07-05T12:55:11.472Z,1.50
2018-07-05T12:57:51.406Z,1.30
2018-07-05T13:00:30.939Z,1.20
2018-07-05T13:03:10.654Z,1.20
2018-07-05T13:05:50.187Z,1.50
2018-07-05T13:08:29.913Z,1.20
2018-07-05T13:11:09.631Z,1.30
2018-07-05T13:13:49.305Z,1.45
2018-07-05T13:16:28.923Z,1.30
2018-07-05T13:19:02.597Z,2.50
2018-07-05T13:21:42.269Z,1.20
2018-07-05T13:24:21.904Z,1.20
2018-07-05T13:27:01.686Z,1.30
2018-07-05T13:29:41.337Z,1.10
2018-07-05T13:32:20.943Z,1.30
2018-07-05T13:35:00.726Z,1.50
2018-07-05T13:37:40.306Z,1.20
2018-07-05T13:40:19.794Z,1.20
2018-07-05T13:42:59.439Z,1.87
2018-07-05T13:45:39.086Z,1.30
2018-07-05T13:48:18.755Z,1.40
2018-07-05T13:50:58.713Z,1.50
2018-07-05T13:53:38.444Z,1.40
2018-07-05T13:56:18.178Z,1.30
2018-07-05T13:58:57.967Z,1.30
2018-07-05T14:01:37.590Z,1.60
2018-07-05T14:04:17.282Z,1.20
2018-07-05T14:06:56.953Z,1.30
2018-07-05T14:09:36.669Z,1.55
2018-07-05T14:12:10.418Z,1.30
2018-07-05T14:14:50.097Z,1.30
2018-07-05T14:17:29.759Z,1.40
2018-07-05T14:20:09.309Z,1.50
2018-07-05T14:22:43.118Z,1.60
2018-07-05T14:25:16.660Z,1.30
2018-07-05T14:27:56.357Z,1.60
2018-07-05T14:30:35.885Z,1.60
2018-07-05T14:33:15.482Z,1.47
2018-07-05T14:35:55.226Z,1.60
2018-07-05T14:38:34.894Z,1.40
2018-07-05T14:41:14.511Z,1.40
2018-07-05T14:43:54.154Z,1.50
2018-07-05T14:46:33.644Z,1.50
2018-07-05T14:49:13.408Z,1.60
2018-07-05T14:51:53.026Z,1.67
2018-07-05T14:54:32.773Z,1.70
2018-07-05T14:57:12.355Z,1.75
2018-07-05T14:59:52.035Z,1.70
2018-07-05T15:02:31.791Z,1.60
2018-07-05T15:05:11.612Z,2.37
2018-07-05T15:07:51.370Z,1.87
2018-07-05T15:10:31.195Z,1.85
2018-07-05T15:13:10.897Z,2.00
2018-07-05T15:15:50.589Z,1.70
2018-07-05T15:18:30.287Z,1.70
2018-07-05T15:21:10.002Z,1.77
2018-07-05T15:23:49.640Z,1.80
2018-07-05T15:26:29.124Z,1.80
2018-07-05T15:29:08.755Z,1.70
2018-07-05T15:31:48.411Z,1.80
2018-07-05T15:34:21.968Z,1.60
2018-07-05T15:37:01.614Z,1.70
2018-07-05T15:39:41.385Z,1.60
2018-07-05T15:42:21.035Z,1.62
2018-07-05T15:45:00.690Z,1.80
2018-07-05T15:47:40.419Z,2.58
2018-07-05T15:50:20.095Z,1.60
2018-07-05T15:52:59.706Z,1.50
2018-07-05T15:55:39.487Z,1.60
2018-07-05T15:58:19.082Z,1.70
2018-07-05T16:00:58.767Z,1.52
2018-07-05T16:03:32.284Z,1.50
2018-07-05T16:06:11.998Z,1.60
2018-07-05T16:08:45.694Z,1.52
2018-07-05T16:11:25.511Z,1.50
2018-07-05T16:14:05.203Z,1.50
2018-07-05T16:16:38.761Z,1.60
2018-07-05T16:19:18.523Z,1.40
2018-07-05T16:21:58.185Z,1.60
2018-07-05T16:24:31.790Z,1.70
2018-07-05T16:27:11.583Z,1.30
2018-07-05T16:29:51.399Z,1.20
2018-07-05T16:32:31.237Z,1.25
2018-07-05T16:35:04.953Z,1.20
2018-07-05T16:37:44.569Z,1.30
2018-07-05T16:40:24.437Z,1.47
2018-07-05T16:42:58.207Z,1.20
2018-07-05T16:45:37.899Z,1.20
2018-07-05T16:48:17.670Z,1.20
2018-07-05T16:50:57.342Z,1.20
2018-07-05T16:53:36.917Z,1.30
2018-07-05T16:56:10.500Z,1.70
2018-07-05T16:58:50.303Z,1.65
2018-07-05T17:01:30.107Z,1.30
2018-07-05T17:04:09.691Z,1.40
2018-07-05T17:06:49.635Z,1.20
2018-07-05T17:09:29.274Z,1.20
2018-07-05T17:12:08.990Z,1.30
2018-07-05T17:14:48.786Z,1.30
2018-07-05T17:17:28.278Z,1.30
2018-07-05T17:20:07.928Z,1.30
2018-07-05T17:22:47.673Z,1.40
2018-07-05T17:25:27.427Z,1.35
2018-07-05T17:28:07.037Z,1.37
2018-07-05T17:30:46.687Z,4.35
2018-07-05T17:33:26.432Z,1.90
2018-07-05T17:36:06.018Z,1.40
2018-07-05T17:38:45.554Z,1.45
2018-07-05T17:41:25.164Z,1.40
2018-07-05T17:44:04.917Z,1.60
2018-07-05T17:46:38.493Z,1.32
2018-07-05T17:49:18.163Z,1.40
2018-07-05T17:51:51.818Z,2.67
2018-07-05T17:54:31.511Z,1.50
2018-07-05T17:57:11.028Z,1.40
2018-07-05T17:59:50.803Z,1.72
2018-07-05T18:02:30.542Z,1.40
2018-07-05T18:05:04.187Z,2.02
2018-07-05T18:07:43.902Z,1.40
2018-07-05T18:10:23.539Z,1.70
2018-07-05T18:12:57.266Z,1.50
2018-07-05T18:15:36.849Z,1.50
2018-07-05T18:18:16.669Z,1.60
2018-07-05T18:20:56.348Z,1.70
2018-07-05T18:23:36.126Z,1.60
2018-07-05T18:26:15.861Z,1.67
2018-07-05T18:28:49.576Z,1.60
2018-07-05T18:31:29.403Z,1.62
2018-07-05T18:34:09.180Z,1.70
2018-07-05T18:36:48.982Z,7.10
2018-07-05T18:39:28.855Z,1.60
2018-07-05T18:42:02.407Z,1.60
2018-07-05T18:44:42.016Z,1.80
2018-07-05T18:47:21.507Z,1.60
2018-07-05T18:50:01.077Z,1.70
2018-07-05T18:52:34.760Z,1.62
2018-07-05T18:55:14.511Z,1.70
2018-07-05T18:57:54.161Z,1.72
2018-07-05T19:00:27.743Z,1.70
2018-07-05T19:03:07.331Z,1.70
2018-07-05T19:05:46.816Z,1.52
2018-07-05T19:08:26.622Z,1.50
2018-07-05T19:11:06.211Z,1.80
2018-07-05T19:13:45.867Z,1.62
2018-07-05T19:16:25.559Z,1.67
2018-07-05T19:18:58.911Z,1.90
2018-07-05T19:21:38.582Z,1.60
2018-07-05T19:24:18.303Z,1.60
2018-07-05T19:26:57.963Z,1.70
2018-07-05T19:29:31.774Z,1.90
2018-07-05T19:32:11.490Z,1.50
2018-07-05T19:34:51.250Z,1.47
2018-07-05T19:37:24.826Z,1.50
2018-07-05T19:40:04.435Z,1.50
2018-07-05T19:42:44.059Z,1.40
2018-07-05T19:45:23.685Z,1.47
2018-07-05T19:47:57.391Z,1.50
2018-07-05T19:50:31.072Z,2.30
2018-07-05T19:53:10.719Z,1.40
2018-07-05T19:55:50.323Z,2.70
2018-07-05T19:58:29.989Z,1.42
2018-07-05T20:01:09.662Z,1.70
2018-07-05T20:03:43.217Z,1.65
2018-07-05T20:06:22.834Z,1.40
2018-07-05T20:09:02.431Z,1.40
2018-07-05T20:11:47.395Z,1.50
2018-07-05T20:14:27.100Z,1.40
2018-07-05T20:17:06.702Z,1.55
2018-07-05T20:19:40.361Z,1.40
2018-07-05T20:22:20.524Z,1.40
2018-07-05T20:25:00.203Z,1.40
2018-07-05T20:27:39.978Z,1.37
2018-07-05T20:30:13.648Z,1.40
2018-07-05T20:32:53.374Z,1.40
2018-07-05T20:35:32.967Z,1.35
2018-07-05T20:38:12.681Z,1.40
2018-07-05T20:40:52.291Z,1.35
2018-07-05T20:43:32.081Z,1.30
2018-07-05T20:46:11.725Z,1.35
2018-07-05T20:48:51.399Z,1.40
2018-07-05T20:51:31.015Z,1.40
2018-07-05T20:54:10.711Z,1.40
2018-07-05T20:56:50.402Z,1.40
2018-07-05T20:59:30.114Z,1.50
2018-07-05T21:02:09.883Z,1.37
2018-07-05T21:04:49.566Z,1.40
2018-07-05T21:07:29.367Z,1.40
2018-07-05T21:10:09.105Z,1.40
2018-07-05T21:12:48.751Z,1.40
2018-07-05T21:15:28.376Z,1.50
2018-07-05T21:18:07.876Z,1.40
2018-07-05T21:20:47.492Z,1.60
2018-07-05T21:23:27.393Z,1.40
2018-07-05T21:26:07.139Z,1.40
2018-07-05T21:28:46.904Z,1.40
2018-07-05T21:31:26.670Z,1.50
2018-07-05T21:34:06.215Z,1.40
2018-07-05T21:36:45.888Z,1.40
2018-07-05T21:39:25.667Z,1.30
2018-07-05T21:42:05.339Z,1.60
2018-07-05T21:44:45.099Z,1.40
2018-07-05T21:47:24.927Z,1.50
2018-07-05T21:50:04.679Z,1.40
2018-07-05T21:52:44.354Z,1.42
2018-07-05T21:55:23.932Z,1.30
2018-07-05T21:58:03.511Z,1.30
2018-07-05T22:00:43.162Z,1.30
2018-07-05T22:03:22.894Z,1.30
2018-07-05T22:06:02.623Z,1.40
2018-07-05T22:08:42.262Z,1.98
2018-07-05T22:11:21.863Z,1.30
2018-07-05T22:14:01.497Z,1.30
2018-07-05T22:16:46.645Z,1.30
2018-07-05T22:19:31.727Z,1.40
2018-07-05T22:22:16.853Z,1.30
2018-07-05T22:25:01.838Z,1.30
2018-07-05T22:27:47.133Z,1.30
2018-07-05T22:30:32.286Z,1.40
2018-07-05T22:33:11.930Z,1.30
2018-07-05T22:35:51.451Z,1.40
2018-07-05T22:38:31.183Z,1.40
2018-07-05T22:41:11.037Z,1.30
2018-07-05T22:43:50.698Z,1.40
2018-07-05T22:46:30.251Z,1.50
2018-07-05T22:49:09.839Z,1.40
2018-07-05T22:51:49.412Z,2.67
2018-07-05T22:54:29.129Z,1.50
2018-07-05T22:57:08.835Z,1.60
2018-07-05T22:59:48.394Z,1.40
2018-07-05T23:02:28.251Z,1.50
2018-07-05T23:05:07.995Z,1.50
2018-07-05T23:07:47.736Z,1.60
2018-07-05T23:10:21.423Z,1.55
2018-07-05T23:13:01.084Z,1.40
2018-07-05T23:15:34.734Z,1.47
2018-07-05T23:18:14.194Z,1.50
2018-07-05T23:20:53.772Z,1.60
2018-07-05T23:23:33.324Z,1.60
2018-07-05T23:26:12.903Z,1.40
2018-07-05T23:28:52.482Z,1.40
2018-07-05T23:31:32.094Z,1.77
2018-07-05T23:34:11.639Z,1.40
2018-07-05T23:36:51.630Z,1.50
2018-07-05T23:39:31.345Z,1.60
2018-07-05T23:42:11.005Z,1.42
2018-07-05T23:44:50.707Z,1.40
2018-07-05T23:47:30.281Z,1.50
2018-07-05T23:50:09.999Z,1.42
2018-07-05T23:52:49.645Z,1.40
2018-07-05T23:55:29.306Z,1.42
2018-07-05T23:58:09.078Z,1.75
